Terminal Aerodrome Forecast
Issued by NWS Shreveport, LA

Home | Current Version | Previous Version | Text Only | Print | Product List | Glossary On
Versions: 1 2 3 4 5 6 7 8 9 10 11 12 13 14 15 16 17 18 19
000
FTUS44 KSHV 211700 RRA
TAFLFK
TAF
KLFK 211751Z 2118/2218 VRB05KT P6SM BKN045
     FM220200 VRB03KT P6SM VCSH BKN045 OVC070
      TEMPO 2203/2205 5SM -TSRA BKN035CB OVC060
     FM220600 VRB03KT P6SM VCSH BKN045 OVC070
     FM220800 03004KT P6SM BKN045
     FM221200 03004KT 5SM BR BKN045
     FM221300 03006KT P6SM BKN050=

USA.gov is the U.S. government's official web portal to all federal, state and local government web resources and services.